Sunset Valley, Texas
Current Conditions -  °F | °C
As of 6:53 AM on Wednesday 22 Oct 2014 (Local Time) from KAUS Reporting Station
Broken Clouds Broken Clouds  
Wind Chill: 59°   Ceiling: 20000
Heat Index: 59°   Visibility: 10mi
Dew Point: 57°   Wind: 0mph
Humidity: 93%   Direction: NA
Pressure: 30.07"   Gusts: NA
Location:  30.2064°N, 97.7973°W
Report Text: KAUS 221153Z 00000KT 10SM BKN200 15/14 A3007 RMK AO2 SLP180 T01500139 10156 20128 53009
Loading
Personal Weather Stations






























Interactive Weather Map
Tropical Storm Tracking
New forecast layout! Learn more

10-Day Weather Forecast

Advertisements
Track Severe Weather on mobile